Shijiazhuang, China
Current Conditions -  °F | °C
As of 9:00 PM on Thursday 23 Oct 2014 (Local Time) from ZBSJ Reporting Station
Haze Haze  
Wind Chill: 55°   Ceiling: Unl
Heat Index: 55°   Visibility: 0.87mi
Dew Point: 54°   Wind: 2mph
Humidity: 94%   Direction: 20°NNE
Pressure: 29.88"   Gusts: NA
Location:  38.05°N, 114.48°E
Report Text: ZBSJ 231300Z 02001MPS 1400 R15/1500U BR NSC 13/12 Q1012 NOSIG
Loading
Personal Weather Stations






























Interactive Weather Map
Tropical Storm Tracking
New forecast layout! Learn more

10-Day Weather Forecast

Advertisements
Track Severe Weather on mobile